createdAt,value
2023-07-19T00:03:13.218Z,13.35
2023-07-19T00:08:16.240Z,13.59
2023-07-19T00:13:19.172Z,13.60
2023-07-19T00:18:22.223Z,13.77
2023-07-19T00:23:25.251Z,13.79
2023-07-19T00:28:28.322Z,13.69
2023-07-19T00:33:32.214Z,13.81
2023-07-19T00:38:35.181Z,13.57
2023-07-19T00:43:38.135Z,13.30
2023-07-19T00:48:43.066Z,13.26
2023-07-19T00:53:50.161Z,13.16
2023-07-19T00:58:54.786Z,13.04
2023-07-19T01:03:57.820Z,13.32
2023-07-19T01:09:01.377Z,13.42
2023-07-19T01:14:04.572Z,13.31
2023-07-19T01:19:10.912Z,13.04
2023-07-19T01:24:13.848Z,12.94
2023-07-19T01:29:16.745Z,13.07
2023-07-19T01:34:19.655Z,13.23
2023-07-19T01:39:22.710Z,13.19
2023-07-19T01:44:25.619Z,13.26
2023-07-19T01:49:28.534Z,13.26
2023-07-19T01:54:32.071Z,13.47
2023-07-19T01:59:35.269Z,13.54
2023-07-19T02:04:38.299Z,13.54
2023-07-19T02:09:41.796Z,13.42
2023-07-19T02:14:44.741Z,13.46
2023-07-19T02:19:47.827Z,13.55
2023-07-19T02:24:50.780Z,13.69
2023-07-19T02:29:53.933Z,13.73
2023-07-19T02:34:56.914Z,13.90
2023-07-19T02:39:59.869Z,13.93
2023-07-19T02:45:02.869Z,13.70
2023-07-19T02:50:06.777Z,13.57
2023-07-19T02:55:09.933Z,13.73
2023-07-19T03:00:13.540Z,13.87
2023-07-19T03:05:17.440Z,14.40
2023-07-19T03:10:20.527Z,14.81
2023-07-19T03:15:23.480Z,14.66
2023-07-19T03:20:26.901Z,14.65
2023-07-19T03:25:30.420Z,14.53
2023-07-19T03:30:33.945Z,14.17
2023-07-19T03:35:36.905Z,13.81
2023-07-19T03:40:39.827Z,13.78
2023-07-19T03:45:43.840Z,14.42
2023-07-19T03:50:57.524Z,15.25
2023-07-19T03:56:01.562Z,16.05
2023-07-19T04:01:04.534Z,17.11
2023-07-19T04:06:08.216Z,17.75
2023-07-19T04:11:11.812Z,17.66
2023-07-19T04:16:14.886Z,17.41
2023-07-19T04:21:18.072Z,17.07
2023-07-19T04:26:21.160Z,16.75
2023-07-19T04:31:24.146Z,16.48
2023-07-19T04:36:27.014Z,16.17
2023-07-19T04:41:29.883Z,15.97
2023-07-19T04:46:32.844Z,15.90
2023-07-19T04:51:35.972Z,15.72
2023-07-19T04:56:38.910Z,15.71
2023-07-19T05:01:41.865Z,15.71
2023-07-19T05:06:45.366Z,15.72
2023-07-19T05:11:48.225Z,15.56
2023-07-19T05:16:51.596Z,15.83
2023-07-19T05:21:54.633Z,16.25
2023-07-19T05:26:58.229Z,16.92
2023-07-19T05:32:01.462Z,17.61
2023-07-19T05:37:05.522Z,18.11
2023-07-19T05:42:08.681Z,18.39
2023-07-19T05:47:11.682Z,18.68
2023-07-19T05:52:14.784Z,18.94
2023-07-19T05:57:17.776Z,19.51
2023-07-19T06:02:20.884Z,19.98
2023-07-19T06:07:23.836Z,19.96
2023-07-19T06:12:26.744Z,19.02
2023-07-19T06:17:29.757Z,18.35
2023-07-19T06:22:32.734Z,18.15
2023-07-19T06:27:35.734Z,18.13
2023-07-19T06:32:39.279Z,17.97
2023-07-19T06:37:42.280Z,17.99
2023-07-19T06:42:45.245Z,18.05
2023-07-19T06:47:48.262Z,18.13
2023-07-19T06:52:51.620Z,18.02
2023-07-19T06:57:54.645Z,17.76
2023-07-19T07:02:57.642Z,17.60
2023-07-19T07:08:00.694Z,17.61
2023-07-19T07:13:03.625Z,17.70
2023-07-19T07:18:06.511Z,17.90
2023-07-19T07:23:09.669Z,18.04
2023-07-19T07:28:12.984Z,18.37
2023-07-19T07:33:16.021Z,18.77
2023-07-19T07:38:19.288Z,19.05
2023-07-19T07:43:22.225Z,19.43
2023-07-19T07:48:25.371Z,19.72
2023-07-19T07:53:28.334Z,19.73
2023-07-19T07:58:31.388Z,19.76
2023-07-19T08:03:34.501Z,19.70
2023-07-19T08:08:37.623Z,19.86
2023-07-19T08:13:40.548Z,20.00
2023-07-19T08:18:53.472Z,20.06
2023-07-19T08:24:02.693Z,20.07
2023-07-19T08:29:05.711Z,20.01
2023-07-19T08:34:08.720Z,19.57
2023-07-19T08:39:11.698Z,19.46
2023-07-19T08:44:15.310Z,19.55
2023-07-19T08:49:19.986Z,19.61
2023-07-19T08:54:23.088Z,19.97
2023-07-19T08:59:26.373Z,20.06
2023-07-19T09:04:29.360Z,19.94
2023-07-19T09:09:33.461Z,19.91
2023-07-19T09:14:38.012Z,20.11
2023-07-19T09:19:44.555Z,20.20
2023-07-19T09:25:02.650Z,20.33
2023-07-19T09:30:16.234Z,20.22
2023-07-19T09:35:28.817Z,20.14
2023-07-19T09:40:32.849Z,20.26
2023-07-19T09:45:36.063Z,20.43
2023-07-19T09:50:43.170Z,20.66
2023-07-19T09:55:49.647Z,20.86
2023-07-19T10:00:52.634Z,20.94
2023-07-19T10:05:58.055Z,21.04
2023-07-19T10:11:02.300Z,21.01
2023-07-19T10:16:06.493Z,20.84
2023-07-19T10:21:11.475Z,20.62
2023-07-19T10:26:14.475Z,20.69
2023-07-19T10:31:28.804Z,20.47
2023-07-19T10:36:32.339Z,20.18
2023-07-19T10:41:35.926Z,19.90
2023-07-19T10:46:39.753Z,19.87
2023-07-19T10:51:59.477Z,19.84
2023-07-19T10:57:02.870Z,19.99
2023-07-19T11:02:06.877Z,20.16
2023-07-19T11:07:12.238Z,20.43
2023-07-19T11:12:15.824Z,20.44
2023-07-19T11:17:31.700Z,20.53
2023-07-19T11:22:35.037Z,20.82
2023-07-19T11:27:39.500Z,21.15
2023-07-19T11:32:42.602Z,22.12
2023-07-19T11:37:45.564Z,22.88
2023-07-19T11:42:53.624Z,23.19
2023-07-19T11:48:02.764Z,23.24
2023-07-19T11:53:07.038Z,23.58
2023-07-19T11:58:10.063Z,24.10
2023-07-19T12:03:15.570Z,24.17
2023-07-19T12:08:18.566Z,24.16
2023-07-19T12:13:23.655Z,23.90
2023-07-19T12:18:29.533Z,24.25
2023-07-19T12:23:34.261Z,24.38
2023-07-19T12:28:38.051Z,23.92
2023-07-19T12:33:41.797Z,23.58
2023-07-19T12:38:44.848Z,22.99
2023-07-19T12:43:48.145Z,23.00
2023-07-19T12:48:51.157Z,23.51
2023-07-19T12:53:54.361Z,23.97
2023-07-19T12:58:57.374Z,24.02
2023-07-19T13:04:00.710Z,23.41
2023-07-19T13:09:07.830Z,23.08
2023-07-19T13:14:10.960Z,22.84
2023-07-19T13:19:14.477Z,22.74
2023-07-19T13:24:17.403Z,22.43
2023-07-19T13:29:20.495Z,22.20
2023-07-19T13:34:23.611Z,21.86
2023-07-19T13:39:28.656Z,21.39
2023-07-19T13:44:32.476Z,21.26
2023-07-19T13:49:35.959Z,20.82
2023-07-19T13:54:40.064Z,20.49
2023-07-19T13:59:42.992Z,20.22
2023-07-19T14:04:46.033Z,20.00
2023-07-19T14:09:49.182Z,19.31
2023-07-19T14:14:52.372Z,18.66
2023-07-19T14:19:57.429Z,18.19
2023-07-19T14:25:00.850Z,17.92
2023-07-19T14:30:07.407Z,17.59
2023-07-19T14:35:11.148Z,17.18
2023-07-19T14:40:15.121Z,16.73
2023-07-19T14:45:27.626Z,16.45
2023-07-19T14:50:34.809Z,16.36
2023-07-19T14:55:37.866Z,16.38
2023-07-19T15:00:41.033Z,16.32
2023-07-19T15:05:46.283Z,16.37
2023-07-19T15:10:50.580Z,16.50
2023-07-19T15:15:56.113Z,16.57
2023-07-19T15:21:01.842Z,16.67
2023-07-19T15:26:12.120Z,16.91
2023-07-19T15:31:20.371Z,16.80
2023-07-19T15:36:24.434Z,16.60
2023-07-19T15:41:27.626Z,16.57
2023-07-19T15:46:30.749Z,16.70
2023-07-19T15:51:39.097Z,16.78
2023-07-19T15:56:42.112Z,16.89
2023-07-19T16:01:45.374Z,17.04
2023-07-19T16:06:48.306Z,17.24
2023-07-19T16:11:51.570Z,17.24
2023-07-19T16:16:54.505Z,17.28
2023-07-19T16:21:57.451Z,17.41
2023-07-19T16:27:00.443Z,17.52
2023-07-19T16:32:03.611Z,17.62
2023-07-19T16:37:07.519Z,17.99
2023-07-19T16:42:10.586Z,18.38
2023-07-19T16:47:13.570Z,18.29
2023-07-19T16:52:16.558Z,18.16
2023-07-19T16:57:19.589Z,18.11
2023-07-19T17:02:22.529Z,17.65
2023-07-19T17:07:25.546Z,17.38
2023-07-19T17:12:28.483Z,17.47
2023-07-19T17:17:38.924Z,17.68
2023-07-19T17:22:42.270Z,17.76
2023-07-19T17:27:46.358Z,17.65
2023-07-19T17:32:49.726Z,17.69
2023-07-19T17:37:55.032Z,17.65
2023-07-19T17:42:58.195Z,17.49
2023-07-19T17:48:01.296Z,17.36
2023-07-19T17:53:04.352Z,17.17
2023-07-19T17:58:07.318Z,17.01
2023-07-19T18:03:10.612Z,16.99
2023-07-19T18:08:23.176Z,17.08
2023-07-19T18:13:28.176Z,16.92
2023-07-19T18:18:31.224Z,17.02
2023-07-19T18:23:34.130Z,17.34
2023-07-19T18:28:37.438Z,17.54
2023-07-19T18:33:41.038Z,17.66
2023-07-19T18:38:44.027Z,17.83
2023-07-19T18:43:46.989Z,17.54
2023-07-19T18:48:49.988Z,17.31
2023-07-19T18:53:52.959Z,17.33
2023-07-19T18:58:56.047Z,17.37
2023-07-19T19:03:59.226Z,17.07
2023-07-19T19:09:08.074Z,16.62
2023-07-19T19:14:11.207Z,16.26
2023-07-19T19:19:14.169Z,16.10
2023-07-19T19:24:17.161Z,15.93
2023-07-19T19:29:20.363Z,15.65
2023-07-19T19:34:23.662Z,15.67
2023-07-19T19:39:30.130Z,15.80
2023-07-19T19:44:33.673Z,15.85
2023-07-19T19:49:37.063Z,15.74
2023-07-19T19:54:41.340Z,15.66
2023-07-19T19:59:45.966Z,15.48
2023-07-19T20:04:50.077Z,15.51
2023-07-19T20:10:01.498Z,15.54
2023-07-19T20:15:17.661Z,15.57
2023-07-19T20:20:24.022Z,15.58
2023-07-19T20:25:54.325Z,15.66
2023-07-19T20:30:55.409Z,15.49
2023-07-19T20:46:10.006Z,15.28
2023-07-19T20:51:13.088Z,15.22
2023-07-19T20:56:25.068Z,14.93
2023-07-19T21:01:28.602Z,15.08
2023-07-19T21:06:31.789Z,15.25
2023-07-19T21:11:34.858Z,15.33
2023-07-19T21:16:40.541Z,15.35
2023-07-19T21:21:44.580Z,15.32
2023-07-19T21:26:47.568Z,15.39
2023-07-19T21:31:50.643Z,15.47
2023-07-19T21:36:53.604Z,15.49
2023-07-19T21:41:56.623Z,15.43
2023-07-19T21:46:59.559Z,15.40
2023-07-19T21:52:02.630Z,15.39
2023-07-19T21:57:06.021Z,15.34
2023-07-19T22:02:09.208Z,15.23
2023-07-19T22:07:12.094Z,15.04
2023-07-19T22:12:15.032Z,14.97
2023-07-19T22:17:18.008Z,14.86
2023-07-19T22:22:20.931Z,14.81
2023-07-19T22:27:23.819Z,14.78
2023-07-19T22:32:27.127Z,14.80
2023-07-19T22:37:30.057Z,14.75
2023-07-19T22:42:32.956Z,14.65
2023-07-19T22:47:35.872Z,14.61
2023-07-19T22:52:42.241Z,14.62
2023-07-19T22:57:45.267Z,14.50
2023-07-19T23:02:48.357Z,14.48
2023-07-19T23:07:55.310Z,14.49
2023-07-19T23:12:58.257Z,14.48
2023-07-19T23:18:01.266Z,14.51
2023-07-19T23:23:04.218Z,14.57
2023-07-19T23:28:07.238Z,14.50
2023-07-19T23:33:10.178Z,14.26
2023-07-19T23:38:13.196Z,14.25
2023-07-19T23:43:18.598Z,14.32
2023-07-19T23:48:21.537Z,14.37
2023-07-19T23:53:24.516Z,14.38
2023-07-19T23:58:27.443Z,14.30
